createdAt,value
2019-04-03T00:08:12.799Z,23.8
2019-04-03T00:18:12.126Z,23.9
2019-04-03T00:28:11.220Z,23.8
2019-04-03T00:38:10.420Z,23.8
2019-04-03T00:48:09.668Z,23.8
2019-04-03T00:58:08.841Z,23.8
2019-04-03T01:08:08.059Z,23.8
2019-04-03T01:18:07.268Z,23.7
2019-04-03T01:28:06.468Z,23.6
2019-04-03T01:38:05.686Z,23.6
2019-04-03T01:48:04.889Z,23.6
2019-04-03T01:58:06.073Z,23.6
2019-04-03T02:08:03.317Z,23.6
2019-04-03T02:18:02.514Z,23.6
2019-04-03T02:28:03.511Z,23.6
2019-04-03T02:38:00.934Z,23.6
2019-04-03T02:48:00.162Z,23.6
2019-04-03T02:57:59.462Z,23.6
2019-04-03T03:07:58.573Z,23.6
2019-04-03T03:17:57.770Z,23.6
2019-04-03T03:27:57.345Z,23.6
2019-04-03T03:37:56.272Z,23.5
2019-04-03T03:47:55.416Z,23.5
2019-04-03T03:57:54.611Z,23.4
2019-04-03T04:07:53.834Z,23.3
2019-04-03T04:17:53.030Z,23.3
2019-04-03T04:27:52.253Z,23.4
2019-04-03T04:37:51.454Z,23.4
2019-04-03T04:47:50.671Z,23.4
2019-04-03T04:57:49.887Z,23.4
2019-04-03T05:07:49.198Z,23.4
2019-04-03T05:17:50.482Z,23.4
2019-04-03T05:27:47.500Z,23.5
2019-04-03T05:37:46.896Z,23.6
2019-04-03T05:47:45.930Z,23.7
2019-04-03T05:57:46.014Z,23.8
2019-04-03T06:07:44.349Z,23.9
2019-04-03T06:17:43.564Z,23.9
2019-04-03T06:27:45.410Z,24.1
2019-04-03T06:37:41.962Z,24.2
2019-04-03T06:47:41.200Z,24.3
2019-04-03T06:57:40.395Z,24.4
2019-04-03T07:07:39.588Z,24.6
2019-04-03T07:17:38.807Z,24.7
2019-04-03T07:27:41.171Z,24.8
2019-04-03T07:37:37.284Z,24.9
2019-04-03T07:47:36.655Z,24.9
2019-04-03T07:57:36.735Z,25.1
2019-04-03T08:07:34.850Z,25.1
2019-04-03T08:17:34.059Z,25.2
2019-04-03T08:27:33.634Z,25.3
2019-04-03T08:37:32.805Z,25.3
2019-04-03T08:47:31.671Z,25.4
2019-04-03T08:57:30.900Z,25.4
2019-04-03T09:07:30.093Z,25.4
2019-04-03T09:17:29.310Z,25.5
2019-04-03T09:27:28.517Z,25.5
2019-04-03T09:37:27.731Z,25.5
2019-04-03T09:47:27.228Z,25.6
2019-04-03T09:57:26.152Z,25.6
2019-04-03T10:07:25.360Z,25.5
2019-04-03T10:17:24.558Z,25.4
2019-04-03T10:27:23.782Z,25.4
2019-04-03T10:37:23.405Z,25.4
2019-04-03T10:47:25.254Z,25.4
2019-04-03T10:57:21.414Z,25.4
2019-04-03T11:07:20.617Z,25.4
2019-04-03T11:17:19.859Z,25.4
2019-04-03T11:27:19.071Z,25.4
2019-04-03T11:37:18.538Z,25.4
2019-04-03T11:47:17.795Z,25.4
2019-04-03T11:57:17.505Z,25.4
2019-04-03T12:07:16.212Z,25.3
2019-04-03T12:17:15.080Z,25.3
2019-04-03T12:27:14.728Z,25.3
2019-04-03T12:37:13.838Z,25.2
2019-04-03T12:47:13.667Z,25.2
2019-04-03T12:57:12.060Z,25.2
2019-04-03T13:07:13.732Z,25.1
2019-04-03T13:17:11.194Z,25.1
2019-04-03T13:27:09.545Z,25.1
2019-04-03T13:37:08.764Z,24.9
2019-04-03T13:47:09.038Z,24.9
2019-04-03T13:57:07.486Z,24.9
2019-04-03T14:07:08.507Z,24.9
2019-04-03T14:17:06.145Z,24.9
2019-04-03T14:27:16.120Z,24.9
2019-04-03T14:37:04.138Z,24.8
2019-04-03T14:47:03.432Z,24.8
2019-04-03T14:57:08.879Z,24.7
2019-04-03T15:07:06.674Z,24.7
2019-04-03T15:17:04.030Z,24.6
2019-04-03T15:27:00.059Z,24.6
2019-04-03T15:36:59.644Z,24.6
2019-04-03T15:46:08.647Z,24.6
2019-04-03T15:56:07.766Z,24.5
2019-04-03T16:06:06.687Z,24.4
2019-04-03T16:16:06.106Z,24.4
2019-04-03T16:26:05.592Z,24.3
2019-04-03T16:36:04.329Z,24.3
2019-04-03T16:46:03.565Z,24.3
2019-04-03T16:56:05.279Z,24.2
2019-04-03T17:06:02.160Z,24.2
2019-04-03T17:16:02.371Z,24.2
2019-04-03T17:26:00.727Z,24.1
2019-04-03T17:36:00.026Z,24.1
2019-04-03T17:45:59.253Z,24.1
2019-04-03T17:55:58.460Z,24.1
2019-04-03T18:05:57.675Z,24.1
2019-04-03T18:15:58.828Z,24.1
2019-04-03T18:25:57.751Z,24.2
2019-04-03T18:35:56.687Z,24.1
2019-04-03T18:47:19.040Z,24.1
2019-04-03T18:57:18.271Z,24
2019-04-03T19:07:20.101Z,23.9
2019-04-03T19:17:16.672Z,23.9
2019-04-03T19:27:15.876Z,23.9
2019-04-03T19:37:15.097Z,24.1
2019-04-03T19:47:14.350Z,24.1
2019-04-03T19:57:13.650Z,24
2019-04-03T20:07:12.944Z,23.9
2019-04-03T20:17:12.236Z,23.9
2019-04-03T20:27:11.512Z,23.9
2019-04-03T20:37:10.802Z,23.9
2019-04-03T20:47:10.025Z,23.9
2019-04-03T20:57:09.230Z,23.9
2019-04-03T21:10:14.856Z,23.9
2019-04-03T21:20:14.060Z,23.9
2019-04-03T21:30:13.278Z,23.9
2019-04-03T21:40:12.944Z,23.8
2019-04-03T21:50:11.686Z,23.8
2019-04-03T22:00:12.925Z,23.8
2019-04-03T22:10:10.142Z,23.8
2019-04-03T22:20:09.442Z,23.8
2019-04-03T22:30:08.736Z,23.8
2019-04-03T22:40:10.555Z,23.8
2019-04-03T22:50:07.296Z,23.8
2019-04-03T23:00:06.593Z,23.8
2019-04-03T23:10:05.808Z,23.8
2019-04-03T23:20:05.008Z,23.8
2019-04-03T23:33:45.918Z,23.8
2019-04-03T23:43:43.898Z,23.8
2019-04-03T23:53:43.108Z,23.8
